sensor_id;sensor_type;location;lat;lon;timestamp;temperature;humidity
17399;DHT22;8817;48.170;8.592;2023-04-10T00:00:34;11.20;41.30
17399;DHT22;8817;48.170;8.592;2023-04-10T00:03:02;11.20;41.30
17399;DHT22;8817;48.170;8.592;2023-04-10T00:05:29;11.20;41.40
17399;DHT22;8817;48.170;8.592;2023-04-10T00:07:58;11.20;41.40
17399;DHT22;8817;48.170;8.592;2023-04-10T00:10:25;11.10;41.30
17399;DHT22;8817;48.170;8.592;2023-04-10T00:12:54;11.10;41.30
17399;DHT22;8817;48.170;8.592;2023-04-10T00:15:21;11.10;41.30
17399;DHT22;8817;48.170;8.592;2023-04-10T00:17:48;11.10;41.30
17399;DHT22;8817;48.170;8.592;2023-04-10T00:20:19;11.00;41.30
17399;DHT22;8817;48.170;8.592;2023-04-10T00:22:46;11.00;41.30
17399;DHT22;8817;48.170;8.592;2023-04-10T00:25:14;11.00;41.30
17399;DHT22;8817;48.170;8.592;2023-04-10T00:27:41;11.00;41.40
17399;DHT22;8817;48.170;8.592;2023-04-10T00:30:08;10.90;41.90
17399;DHT22;8817;48.170;8.592;2023-04-10T00:32:35;10.90;41.30
17399;DHT22;8817;48.170;8.592;2023-04-10T00:35:02;10.90;41.40
17399;DHT22;8817;48.170;8.592;2023-04-10T00:37:29;10.90;41.40
17399;DHT22;8817;48.170;8.592;2023-04-10T00:39:56;10.90;41.40
17399;DHT22;8817;48.170;8.592;2023-04-10T00:42:24;10.90;41.40
17399;DHT22;8817;48.170;8.592;2023-04-10T00:44:51;10.90;41.40
17399;DHT22;8817;48.170;8.592;2023-04-10T00:47:18;10.90;41.40
17399;DHT22;8817;48.170;8.592;2023-04-10T00:49:45;10.90;41.40
17399;DHT22;8817;48.170;8.592;2023-04-10T00:52:12;10.90;41.40
17399;DHT22;8817;48.170;8.592;2023-04-10T00:54:39;10.90;41.30
17399;DHT22;8817;48.170;8.592;2023-04-10T00:57:06;10.90;41.30
17399;DHT22;8817;48.170;8.592;2023-04-10T00:59:35;10.80;41.30
17399;DHT22;8817;48.170;8.592;2023-04-10T01:02:02;10.80;41.30
17399;DHT22;8817;48.170;8.592;2023-04-10T01:04:30;10.80;41.30
17399;DHT22;8817;48.170;8.592;2023-04-10T01:07:04;10.70;41.20
17399;DHT22;8817;48.170;8.592;2023-04-10T01:09:40;10.70;41.20
17399;DHT22;8817;48.170;8.592;2023-04-10T01:12:17;10.70;41.20
17399;DHT22;8817;48.170;8.592;2023-04-10T01:15:03;10.60;41.20
17399;DHT22;8817;48.170;8.592;2023-04-10T01:17:36;10.60;41.20
17399;DHT22;8817;48.170;8.592;2023-04-10T01:20:08;10.60;41.20
17399;DHT22;8817;48.170;8.592;2023-04-10T01:22:40;10.50;41.70
17399;DHT22;8817;48.170;8.592;2023-04-10T01:25:33;10.60;41.20
17399;DHT22;8817;48.170;8.592;2023-04-10T01:28:14;10.50;41.20
17399;DHT22;8817;48.170;8.592;2023-04-10T01:30:45;10.50;41.20
17399;DHT22;8817;48.170;8.592;2023-04-10T01:33:16;10.40;41.20
17399;DHT22;8817;48.170;8.592;2023-04-10T01:35:48;10.40;41.20
17399;DHT22;8817;48.170;8.592;2023-04-10T01:38:17;10.40;41.80
17399;DHT22;8817;48.170;8.592;2023-04-10T01:40:50;10.40;41.20
17399;DHT22;8817;48.170;8.592;2023-04-10T01:43:19;10.40;41.30
17399;DHT22;8817;48.170;8.592;2023-04-10T01:45:50;10.30;41.20
17399;DHT22;8817;48.170;8.592;2023-04-10T01:48:17;10.30;41.20
17399;DHT22;8817;48.170;8.592;2023-04-10T01:50:45;10.30;41.20
17399;DHT22;8817;48.170;8.592;2023-04-10T01:53:13;10.30;41.20
17399;DHT22;8817;48.170;8.592;2023-04-10T01:55:41;10.30;41.20
17399;DHT22;8817;48.170;8.592;2023-04-10T01:58:08;10.10;41.10
17399;DHT22;8817;48.170;8.592;2023-04-10T02:00:37;10.20;41.20
17399;DHT22;8817;48.170;8.592;2023-04-10T02:03:06;10.20;41.20
17399;DHT22;8817;48.170;8.592;2023-04-10T02:05:40;10.20;41.20
17399;DHT22;8817;48.170;8.592;2023-04-10T02:08:14;10.10;41.20
17399;DHT22;8817;48.170;8.592;2023-04-10T02:10:47;10.10;41.20
17399;DHT22;8817;48.170;8.592;2023-04-10T02:13:18;10.10;41.20
17399;DHT22;8817;48.170;8.592;2023-04-10T02:15:46;10.10;41.20
17399;DHT22;8817;48.170;8.592;2023-04-10T02:18:18;10.10;41.20
17399;DHT22;8817;48.170;8.592;2023-04-10T02:20:45;10.00;41.20
17399;DHT22;8817;48.170;8.592;2023-04-10T02:23:14;10.00;41.20
17399;DHT22;8817;48.170;8.592;2023-04-10T02:25:42;10.00;41.20
17399;DHT22;8817;48.170;8.592;2023-04-10T02:28:09;10.00;41.30
17399;DHT22;8817;48.170;8.592;2023-04-10T02:30:36;10.00;41.90
17399;DHT22;8817;48.170;8.592;2023-04-10T02:33:04;10.00;41.30
17399;DHT22;8817;48.170;8.592;2023-04-10T02:35:32;10.00;41.40
17399;DHT22;8817;48.170;8.592;2023-04-10T02:37:59;10.00;41.40
17399;DHT22;8817;48.170;8.592;2023-04-10T02:40:26;9.90;41.30
17399;DHT22;8817;48.170;8.592;2023-04-10T02:42:53;9.90;41.30
17399;DHT22;8817;48.170;8.592;2023-04-10T02:45:20;9.90;41.30
17399;DHT22;8817;48.170;8.592;2023-04-10T02:47:46;9.90;41.40
17399;DHT22;8817;48.170;8.592;2023-04-10T02:50:13;9.90;41.90
17399;DHT22;8817;48.170;8.592;2023-04-10T02:52:43;9.90;41.30
17399;DHT22;8817;48.170;8.592;2023-04-10T02:55:10;9.90;41.30
17399;DHT22;8817;48.170;8.592;2023-04-10T02:57:37;9.90;41.30
17399;DHT22;8817;48.170;8.592;2023-04-10T03:00:05;9.90;41.30
17399;DHT22;8817;48.170;8.592;2023-04-10T03:02:32;9.90;41.30
17399;DHT22;8817;48.170;8.592;2023-04-10T03:05:00;9.90;41.30
17399;DHT22;8817;48.170;8.592;2023-04-10T03:07:27;9.90;41.30
17399;DHT22;8817;48.170;8.592;2023-04-10T03:09:55;9.80;41.30
17399;DHT22;8817;48.170;8.592;2023-04-10T03:12:22;9.80;41.30
17399;DHT22;8817;48.170;8.592;2023-04-10T03:14:49;9.80;41.30
17399;DHT22;8817;48.170;8.592;2023-04-10T03:17:17;9.80;41.30
17399;DHT22;8817;48.170;8.592;2023-04-10T03:19:43;9.80;41.40
17399;DHT22;8817;48.170;8.592;2023-04-10T03:22:10;9.80;41.40
17399;DHT22;8817;48.170;8.592;2023-04-10T03:24:37;9.80;41.40
17399;DHT22;8817;48.170;8.592;2023-04-10T03:27:05;9.80;41.40
17399;DHT22;8817;48.170;8.592;2023-04-10T03:29:32;9.80;41.40
17399;DHT22;8817;48.170;8.592;2023-04-10T03:31:59;9.80;41.40
17399;DHT22;8817;48.170;8.592;2023-04-10T03:34:26;9.80;41.30
17399;DHT22;8817;48.170;8.592;2023-04-10T03:36:53;9.80;41.30
17399;DHT22;8817;48.170;8.592;2023-04-10T03:39:20;9.80;41.30
17399;DHT22;8817;48.170;8.592;2023-04-10T03:41:47;9.70;41.20
17399;DHT22;8817;48.170;8.592;2023-04-10T03:44:15;9.70;41.20
17399;DHT22;8817;48.170;8.592;2023-04-10T03:46:42;9.60;41.20
17399;DHT22;8817;48.170;8.592;2023-04-10T03:49:09;9.60;41.20
17399;DHT22;8817;48.170;8.592;2023-04-10T03:51:36;9.60;41.20
17399;DHT22;8817;48.170;8.592;2023-04-10T03:54:03;9.50;41.10
17399;DHT22;8817;48.170;8.592;2023-04-10T03:56:30;9.40;41.10
17399;DHT22;8817;48.170;8.592;2023-04-10T03:58:57;9.40;41.70
17399;DHT22;8817;48.170;8.592;2023-04-10T04:01:25;9.40;41.20
17399;DHT22;8817;48.170;8.592;2023-04-10T04:03:52;9.30;41.10
17399;DHT22;8817;48.170;8.592;2023-04-10T04:06:19;9.30;41.20
17399;DHT22;8817;48.170;8.592;2023-04-10T04:08:46;9.20;41.10
17399;DHT22;8817;48.170;8.592;2023-04-10T04:11:12;9.20;41.20
17399;DHT22;8817;48.170;8.592;2023-04-10T04:13:39;9.20;41.20
17399;DHT22;8817;48.170;8.592;2023-04-10T04:16:08;9.20;41.20
17399;DHT22;8817;48.170;8.592;2023-04-10T04:18:37;9.20;41.30
17399;DHT22;8817;48.170;8.592;2023-04-10T04:21:04;9.10;41.30
17399;DHT22;8817;48.170;8.592;2023-04-10T04:23:32;9.10;41.30
17399;DHT22;8817;48.170;8.592;2023-04-10T04:25:59;9.10;41.30
17399;DHT22;8817;48.170;8.592;2023-04-10T04:28:26;9.00;41.20
17399;DHT22;8817;48.170;8.592;2023-04-10T04:30:53;9.10;41.30
17399;DHT22;8817;48.170;8.592;2023-04-10T04:33:20;9.10;41.30
17399;DHT22;8817;48.170;8.592;2023-04-10T04:35:48;9.10;41.30
17399;DHT22;8817;48.170;8.592;2023-04-10T04:38:16;9.00;41.30
17399;DHT22;8817;48.170;8.592;2023-04-10T04:40:44;9.10;41.40
17399;DHT22;8817;48.170;8.592;2023-04-10T04:43:11;9.00;41.40
17399;DHT22;8817;48.170;8.592;2023-04-10T04:45:38;9.00;41.40
17399;DHT22;8817;48.170;8.592;2023-04-10T04:48:05;9.00;41.40
17399;DHT22;8817;48.170;8.592;2023-04-10T04:50:32;9.00;41.30
17399;DHT22;8817;48.170;8.592;2023-04-10T04:53:00;9.00;41.30
17399;DHT22;8817;48.170;8.592;2023-04-10T04:55:27;9.00;41.30
17399;DHT22;8817;48.170;8.592;2023-04-10T04:57:54;9.00;41.30
17399;DHT22;8817;48.170;8.592;2023-04-10T05:00:21;9.00;41.30
17399;DHT22;8817;48.170;8.592;2023-04-10T05:02:48;8.90;41.30
17399;DHT22;8817;48.170;8.592;2023-04-10T05:05:14;8.90;41.30
17399;DHT22;8817;48.170;8.592;2023-04-10T05:07:41;8.90;41.40
17399;DHT22;8817;48.170;8.592;2023-04-10T05:10:10;8.90;41.40
17399;DHT22;8817;48.170;8.592;2023-04-10T05:12:36;8.90;41.40
17399;DHT22;8817;48.170;8.592;2023-04-10T05:15:07;8.80;41.40
17399;DHT22;8817;48.170;8.592;2023-04-10T05:17:34;8.80;41.40
17399;DHT22;8817;48.170;8.592;2023-04-10T05:20:01;8.80;41.40
17399;DHT22;8817;48.170;8.592;2023-04-10T05:22:29;8.70;41.40
17399;DHT22;8817;48.170;8.592;2023-04-10T05:24:57;8.70;41.40
17399;DHT22;8817;48.170;8.592;2023-04-10T05:27:26;8.70;41.50
17399;DHT22;8817;48.170;8.592;2023-04-10T05:29:52;8.70;41.50
17399;DHT22;8817;48.170;8.592;2023-04-10T05:32:19;8.70;41.60
17399;DHT22;8817;48.170;8.592;2023-04-10T05:34:46;8.70;41.70
17399;DHT22;8817;48.170;8.592;2023-04-10T05:37:13;8.70;41.70
17399;DHT22;8817;48.170;8.592;2023-04-10T05:39:40;8.80;41.90
17399;DHT22;8817;48.170;8.592;2023-04-10T05:42:07;8.80;41.90
17399;DHT22;8817;48.170;8.592;2023-04-10T05:44:35;8.80;41.90
17399;DHT22;8817;48.170;8.592;2023-04-10T05:47:02;8.80;42.00
17399;DHT22;8817;48.170;8.592;2023-04-10T05:49:29;8.90;42.00
17399;DHT22;8817;48.170;8.592;2023-04-10T05:51:56;8.90;42.10
17399;DHT22;8817;48.170;8.592;2023-04-10T05:54:22;9.00;42.20
17399;DHT22;8817;48.170;8.592;2023-04-10T05:56:49;9.10;42.20
17399;DHT22;8817;48.170;8.592;2023-04-10T05:59:16;9.20;42.30
17399;DHT22;8817;48.170;8.592;2023-04-10T06:01:45;9.30;42.40
17399;DHT22;8817;48.170;8.592;2023-04-10T06:04:12;9.40;42.40
17399;DHT22;8817;48.170;8.592;2023-04-10T06:06:39;9.40;42.40
17399;DHT22;8817;48.170;8.592;2023-04-10T06:09:06;9.50;42.40
17399;DHT22;8817;48.170;8.592;2023-04-10T06:11:33;9.60;42.40
17399;DHT22;8817;48.170;8.592;2023-04-10T06:14:00;9.60;42.40
17399;DHT22;8817;48.170;8.592;2023-04-10T06:16:27;9.70;42.40
17399;DHT22;8817;48.170;8.592;2023-04-10T06:18:55;9.70;42.40
17399;DHT22;8817;48.170;8.592;2023-04-10T06:21:22;9.80;42.40
17399;DHT22;8817;48.170;8.592;2023-04-10T06:23:50;9.80;42.30
17399;DHT22;8817;48.170;8.592;2023-04-10T06:26:16;9.80;42.30
17399;DHT22;8817;48.170;8.592;2023-04-10T06:28:43;9.90;42.30
17399;DHT22;8817;48.170;8.592;2023-04-10T06:31:11;9.90;42.30
17399;DHT22;8817;48.170;8.592;2023-04-10T06:33:38;9.90;42.30
17399;DHT22;8817;48.170;8.592;2023-04-10T06:36:07;10.00;42.30
17399;DHT22;8817;48.170;8.592;2023-04-10T06:38:34;10.00;42.30
17399;DHT22;8817;48.170;8.592;2023-04-10T06:41:03;10.00;42.40
17399;DHT22;8817;48.170;8.592;2023-04-10T06:43:32;10.10;42.50
17399;DHT22;8817;48.170;8.592;2023-04-10T06:45:59;10.20;42.60
17399;DHT22;8817;48.170;8.592;2023-04-10T06:48:26;10.20;42.60
17399;DHT22;8817;48.170;8.592;2023-04-10T06:50:53;10.20;42.60
17399;DHT22;8817;48.170;8.592;2023-04-10T06:53:21;10.30;42.70
17399;DHT22;8817;48.170;8.592;2023-04-10T06:55:48;10.40;42.80
17399;DHT22;8817;48.170;8.592;2023-04-10T06:58:15;10.50;42.90
17399;DHT22;8817;48.170;8.592;2023-04-10T07:00:43;10.60;43.00
17399;DHT22;8817;48.170;8.592;2023-04-10T07:03:10;10.70;43.00
17399;DHT22;8817;48.170;8.592;2023-04-10T07:05:37;10.80;43.10
17399;DHT22;8817;48.170;8.592;2023-04-10T07:08:04;10.90;43.20
17399;DHT22;8817;48.170;8.592;2023-04-10T07:10:32;11.00;43.30
17399;DHT22;8817;48.170;8.592;2023-04-10T07:13:01;11.10;43.30
17399;DHT22;8817;48.170;8.592;2023-04-10T07:15:27;11.30;43.40
17399;DHT22;8817;48.170;8.592;2023-04-10T07:17:54;11.40;43.40
17399;DHT22;8817;48.170;8.592;2023-04-10T07:20:21;11.50;43.40
17399;DHT22;8817;48.170;8.592;2023-04-10T07:22:48;11.70;43.50
17399;DHT22;8817;48.170;8.592;2023-04-10T07:25:15;11.80;43.50
17399;DHT22;8817;48.170;8.592;2023-04-10T07:27:44;11.80;43.40
17399;DHT22;8817;48.170;8.592;2023-04-10T07:30:11;12.00;43.40
17399;DHT22;8817;48.170;8.592;2023-04-10T07:32:38;12.10;43.40
17399;DHT22;8817;48.170;8.592;2023-04-10T07:35:07;12.20;43.40
17399;DHT22;8817;48.170;8.592;2023-04-10T07:37:34;12.30;43.40
17399;DHT22;8817;48.170;8.592;2023-04-10T07:40:01;12.30;43.30
17399;DHT22;8817;48.170;8.592;2023-04-10T07:42:28;12.40;43.30
17399;DHT22;8817;48.170;8.592;2023-04-10T07:44:57;12.50;43.30
17399;DHT22;8817;48.170;8.592;2023-04-10T07:47:23;12.50;43.40
17399;DHT22;8817;48.170;8.592;2023-04-10T07:49:50;12.70;44.00
17399;DHT22;8817;48.170;8.592;2023-04-10T07:52:17;12.70;43.50
17399;DHT22;8817;48.170;8.592;2023-04-10T07:54:44;12.80;43.50
17399;DHT22;8817;48.170;8.592;2023-04-10T07:57:11;12.90;43.50
17399;DHT22;8817;48.170;8.592;2023-04-10T07:59:38;13.00;43.60
17399;DHT22;8817;48.170;8.592;2023-04-10T08:02:06;13.10;43.70
17399;DHT22;8817;48.170;8.592;2023-04-10T08:04:33;13.20;43.70
17399;DHT22;8817;48.170;8.592;2023-04-10T08:07:00;13.30;43.70
17399;DHT22;8817;48.170;8.592;2023-04-10T08:09:27;13.40;43.70
17399;DHT22;8817;48.170;8.592;2023-04-10T08:11:55;13.60;43.80
17399;DHT22;8817;48.170;8.592;2023-04-10T08:14:22;13.70;43.90
17399;DHT22;8817;48.170;8.592;2023-04-10T08:16:49;13.80;43.90
17399;DHT22;8817;48.170;8.592;2023-04-10T08:19:17;13.90;43.90
17399;DHT22;8817;48.170;8.592;2023-04-10T08:21:44;14.00;43.90
17399;DHT22;8817;48.170;8.592;2023-04-10T08:24:11;14.10;43.90
17399;DHT22;8817;48.170;8.592;2023-04-10T08:26:38;14.20;43.80
17399;DHT22;8817;48.170;8.592;2023-04-10T08:29:05;14.30;43.80
17399;DHT22;8817;48.170;8.592;2023-04-10T08:31:32;14.40;43.80
17399;DHT22;8817;48.170;8.592;2023-04-10T08:33:59;14.50;43.80
17399;DHT22;8817;48.170;8.592;2023-04-10T08:36:27;14.60;43.90
17399;DHT22;8817;48.170;8.592;2023-04-10T08:38:54;14.60;43.90
17399;DHT22;8817;48.170;8.592;2023-04-10T08:41:21;14.80;44.00
17399;DHT22;8817;48.170;8.592;2023-04-10T08:43:48;14.90;44.00
17399;DHT22;8817;48.170;8.592;2023-04-10T08:46:16;15.00;44.00
17399;DHT22;8817;48.170;8.592;2023-04-10T08:48:46;15.10;44.00
17399;DHT22;8817;48.170;8.592;2023-04-10T08:51:16;15.20;44.00
17399;DHT22;8817;48.170;8.592;2023-04-10T08:53:47;15.30;44.00
17399;DHT22;8817;48.170;8.592;2023-04-10T08:56:17;15.40;43.90
17399;DHT22;8817;48.170;8.592;2023-04-10T08:58:44;15.50;43.90
17399;DHT22;8817;48.170;8.592;2023-04-10T09:01:11;15.60;43.90
17399;DHT22;8817;48.170;8.592;2023-04-10T09:03:38;15.70;43.90
17399;DHT22;8817;48.170;8.592;2023-04-10T09:06:05;15.80;44.00
17399;DHT22;8817;48.170;8.592;2023-04-10T09:08:33;15.90;44.00
17399;DHT22;8817;48.170;8.592;2023-04-10T09:11:03;15.90;43.90
17399;DHT22;8817;48.170;8.592;2023-04-10T09:13:38;16.00;43.80
17399;DHT22;8817;48.170;8.592;2023-04-10T09:16:06;16.10;43.80
17399;DHT22;8817;48.170;8.592;2023-04-10T09:18:41;16.20;43.90
17399;DHT22;8817;48.170;8.592;2023-04-10T09:21:10;16.30;43.90
17399;DHT22;8817;48.170;8.592;2023-04-10T09:23:37;16.50;44.00
17399;DHT22;8817;48.170;8.592;2023-04-10T09:26:26;16.50;43.90
17399;DHT22;8817;48.170;8.592;2023-04-10T09:29:00;16.60;43.80
17399;DHT22;8817;48.170;8.592;2023-04-10T09:31:29;16.70;43.80
17399;DHT22;8817;48.170;8.592;2023-04-10T09:34:13;16.90;43.80
17399;DHT22;8817;48.170;8.592;2023-04-10T09:36:41;16.90;43.70
17399;DHT22;8817;48.170;8.592;2023-04-10T09:39:08;17.10;43.80
17399;DHT22;8817;48.170;8.592;2023-04-10T09:41:48;17.20;43.70
17399;DHT22;8817;48.170;8.592;2023-04-10T09:44:17;17.30;43.50
17399;DHT22;8817;48.170;8.592;2023-04-10T09:46:44;17.40;43.40
17399;DHT22;8817;48.170;8.592;2023-04-10T09:49:11;17.50;43.20
17399;DHT22;8817;48.170;8.592;2023-04-10T09:51:38;17.50;43.20
17399;DHT22;8817;48.170;8.592;2023-04-10T09:54:05;17.70;43.20
17399;DHT22;8817;48.170;8.592;2023-04-10T09:56:35;17.70;43.00
17399;DHT22;8817;48.170;8.592;2023-04-10T09:59:06;17.80;42.80
17399;DHT22;8817;48.170;8.592;2023-04-10T10:01:33;17.90;42.70
17399;DHT22;8817;48.170;8.592;2023-04-10T10:04:01;18.00;42.70
17399;DHT22;8817;48.170;8.592;2023-04-10T10:06:29;18.00;42.70
17399;DHT22;8817;48.170;8.592;2023-04-10T10:09:02;18.10;42.60
17399;DHT22;8817;48.170;8.592;2023-04-10T10:11:32;18.20;42.50
17399;DHT22;8817;48.170;8.592;2023-04-10T10:14:02;18.30;42.50
17399;DHT22;8817;48.170;8.592;2023-04-10T10:16:33;18.30;42.30
17399;DHT22;8817;48.170;8.592;2023-04-10T10:19:08;18.40;42.20
17399;DHT22;8817;48.170;8.592;2023-04-10T10:21:37;18.50;42.20
17399;DHT22;8817;48.170;8.592;2023-04-10T10:24:07;18.50;42.20
17399;DHT22;8817;48.170;8.592;2023-04-10T10:26:36;18.60;42.20
17399;DHT22;8817;48.170;8.592;2023-04-10T10:29:05;18.70;42.20
17399;DHT22;8817;48.170;8.592;2023-04-10T10:31:37;18.80;42.10
17399;DHT22;8817;48.170;8.592;2023-04-10T10:34:05;18.80;41.90
17399;DHT22;8817;48.170;8.592;2023-04-10T10:36:34;18.90;41.70
17399;DHT22;8817;48.170;8.592;2023-04-10T10:39:24;18.90;41.60
17399;DHT22;8817;48.170;8.592;2023-04-10T10:41:58;18.90;41.60
17399;DHT22;8817;48.170;8.592;2023-04-10T10:44:35;19.00;41.60
17399;DHT22;8817;48.170;8.592;2023-04-10T10:47:08;19.10;41.50
17399;DHT22;8817;48.170;8.592;2023-04-10T10:49:56;19.10;41.40
17399;DHT22;8817;48.170;8.592;2023-04-10T10:52:39;19.10;41.40
17399;DHT22;8817;48.170;8.592;2023-04-10T10:55:31;19.30;41.40
17399;DHT22;8817;48.170;8.592;2023-04-10T10:58:02;19.30;41.40
17399;DHT22;8817;48.170;8.592;2023-04-10T11:01:05;19.40;41.30
17399;DHT22;8817;48.170;8.592;2023-04-10T11:03:34;19.50;41.20
17399;DHT22;8817;48.170;8.592;2023-04-10T11:06:03;19.60;41.20
17399;DHT22;8817;48.170;8.592;2023-04-10T11:08:39;19.70;41.20
17399;DHT22;8817;48.170;8.592;2023-04-10T11:11:15;19.70;41.50
17399;DHT22;8817;48.170;8.592;2023-04-10T11:14:12;19.80;40.90
17399;DHT22;8817;48.170;8.592;2023-04-10T11:16:48;19.80;40.80
17399;DHT22;8817;48.170;8.592;2023-04-10T11:19:16;19.90;40.80
17399;DHT22;8817;48.170;8.592;2023-04-10T11:22:05;19.90;40.60
17399;DHT22;8817;48.170;8.592;2023-04-10T11:24:51;19.90;40.70
17399;DHT22;8817;48.170;8.592;2023-04-10T11:27:41;19.90;40.50
17399;DHT22;8817;48.170;8.592;2023-04-10T11:30:31;20.00;40.40
17399;DHT22;8817;48.170;8.592;2023-04-10T11:32:58;20.00;40.50
17399;DHT22;8817;48.170;8.592;2023-04-10T11:35:27;20.10;40.60
17399;DHT22;8817;48.170;8.592;2023-04-10T11:38:13;20.10;40.50
17399;DHT22;8817;48.170;8.592;2023-04-10T11:40:54;20.20;40.60
17399;DHT22;8817;48.170;8.592;2023-04-10T11:43:21;20.30;40.50
17399;DHT22;8817;48.170;8.592;2023-04-10T11:45:47;20.40;40.40
17399;DHT22;8817;48.170;8.592;2023-04-10T11:48:15;20.50;40.30
17399;DHT22;8817;48.170;8.592;2023-04-10T11:50:43;20.50;40.10
17399;DHT22;8817;48.170;8.592;2023-04-10T11:53:17;20.60;40.00
17399;DHT22;8817;48.170;8.592;2023-04-10T11:55:44;20.60;39.80
17399;DHT22;8817;48.170;8.592;2023-04-10T11:58:25;20.70;39.80
17399;DHT22;8817;48.170;8.592;2023-04-10T12:00:57;20.70;39.70
17399;DHT22;8817;48.170;8.592;2023-04-10T12:03:36;20.70;39.60
17399;DHT22;8817;48.170;8.592;2023-04-10T12:06:07;20.70;39.40
17399;DHT22;8817;48.170;8.592;2023-04-10T12:08:36;20.80;39.40
17399;DHT22;8817;48.170;8.592;2023-04-10T12:11:03;20.80;39.40
17399;DHT22;8817;48.170;8.592;2023-04-10T12:13:30;20.90;39.40
17399;DHT22;8817;48.170;8.592;2023-04-10T12:15:58;20.90;39.40
17399;DHT22;8817;48.170;8.592;2023-04-10T12:18:27;21.00;39.30
17399;DHT22;8817;48.170;8.592;2023-04-10T12:20:54;21.00;39.20
17399;DHT22;8817;48.170;8.592;2023-04-10T12:23:23;21.10;39.20
17399;DHT22;8817;48.170;8.592;2023-04-10T12:25:51;21.10;39.20
17399;DHT22;8817;48.170;8.592;2023-04-10T12:28:19;21.20;39.10
17399;DHT22;8817;48.170;8.592;2023-04-10T12:30:48;21.30;39.00
17399;DHT22;8817;48.170;8.592;2023-04-10T12:33:20;21.30;38.80
17399;DHT22;8817;48.170;8.592;2023-04-10T12:35:47;21.30;38.70
17399;DHT22;8817;48.170;8.592;2023-04-10T12:38:14;21.30;38.50
17399;DHT22;8817;48.170;8.592;2023-04-10T12:40:57;21.30;38.50
17399;DHT22;8817;48.170;8.592;2023-04-10T12:43:32;21.30;38.50
17399;DHT22;8817;48.170;8.592;2023-04-10T12:46:00;21.30;38.40
17399;DHT22;8817;48.170;8.592;2023-04-10T12:48:27;21.30;38.40
17399;DHT22;8817;48.170;8.592;2023-04-10T12:50:54;21.20;38.40
17399;DHT22;8817;48.170;8.592;2023-04-10T12:53:21;21.30;38.30
17399;DHT22;8817;48.170;8.592;2023-04-10T12:56:01;21.30;38.10
17399;DHT22;8817;48.170;8.592;2023-04-10T12:58:30;21.20;37.90
17399;DHT22;8817;48.170;8.592;2023-04-10T13:01:03;21.10;37.70
17399;DHT22;8817;48.170;8.592;2023-04-10T13:03:32;21.10;37.60
17399;DHT22;8817;48.170;8.592;2023-04-10T13:06:00;21.00;38.20
17399;DHT22;8817;48.170;8.592;2023-04-10T13:08:28;21.00;37.50
17399;DHT22;8817;48.170;8.592;2023-04-10T13:10:57;20.90;37.60
17399;DHT22;8817;48.170;8.592;2023-04-10T13:13:29;20.90;37.60
17399;DHT22;8817;48.170;8.592;2023-04-10T13:15:57;20.90;37.60
17399;DHT22;8817;48.170;8.592;2023-04-10T13:18:24;20.90;37.70
17399;DHT22;8817;48.170;8.592;2023-04-10T13:20:51;20.90;37.70
17399;DHT22;8817;48.170;8.592;2023-04-10T13:23:18;20.90;37.80
17399;DHT22;8817;48.170;8.592;2023-04-10T13:25:45;20.90;37.80
17399;DHT22;8817;48.170;8.592;2023-04-10T13:28:12;21.00;37.70
17399;DHT22;8817;48.170;8.592;2023-04-10T13:30:41;21.00;37.60
17399;DHT22;8817;48.170;8.592;2023-04-10T13:33:09;21.10;37.70
17399;DHT22;8817;48.170;8.592;2023-04-10T13:35:36;21.10;37.70
17399;DHT22;8817;48.170;8.592;2023-04-10T13:38:04;21.20;37.70
17399;DHT22;8817;48.170;8.592;2023-04-10T13:40:31;21.10;37.60
17399;DHT22;8817;48.170;8.592;2023-04-10T13:42:58;21.20;37.70
17399;DHT22;8817;48.170;8.592;2023-04-10T13:45:25;21.30;37.70
17399;DHT22;8817;48.170;8.592;2023-04-10T13:47:54;21.30;37.50
17399;DHT22;8817;48.170;8.592;2023-04-10T13:50:20;21.30;37.40
17399;DHT22;8817;48.170;8.592;2023-04-10T13:52:47;21.30;37.40
17399;DHT22;8817;48.170;8.592;2023-04-10T13:55:14;21.30;37.40
17399;DHT22;8817;48.170;8.592;2023-04-10T13:57:42;21.30;37.40
17399;DHT22;8817;48.170;8.592;2023-04-10T14:00:09;21.30;37.40
17399;DHT22;8817;48.170;8.592;2023-04-10T14:02:36;21.30;37.30
17399;DHT22;8817;48.170;8.592;2023-04-10T14:05:05;21.30;37.40
17399;DHT22;8817;48.170;8.592;2023-04-10T14:07:32;21.30;37.40
17399;DHT22;8817;48.170;8.592;2023-04-10T14:10:00;21.30;37.40
17399;DHT22;8817;48.170;8.592;2023-04-10T14:12:27;21.30;37.30
17399;DHT22;8817;48.170;8.592;2023-04-10T14:14:54;21.40;37.30
17399;DHT22;8817;48.170;8.592;2023-04-10T14:17:21;21.40;37.30
17399;DHT22;8817;48.170;8.592;2023-04-10T14:19:49;21.30;37.30
17399;DHT22;8817;48.170;8.592;2023-04-10T14:22:18;21.40;37.40
17399;DHT22;8817;48.170;8.592;2023-04-10T14:24:45;21.40;37.40
17399;DHT22;8817;48.170;8.592;2023-04-10T14:27:12;21.50;37.50
17399;DHT22;8817;48.170;8.592;2023-04-10T14:29:40;21.50;37.50
17399;DHT22;8817;48.170;8.592;2023-04-10T14:32:07;21.50;37.50
17399;DHT22;8817;48.170;8.592;2023-04-10T14:34:34;21.60;37.50
17399;DHT22;8817;48.170;8.592;2023-04-10T14:37:01;21.60;37.50
17399;DHT22;8817;48.170;8.592;2023-04-10T14:39:29;21.70;37.50
17399;DHT22;8817;48.170;8.592;2023-04-10T14:41:57;21.70;37.40
17399;DHT22;8817;48.170;8.592;2023-04-10T14:44:24;21.70;37.30
17399;DHT22;8817;48.170;8.592;2023-04-10T14:46:51;21.70;37.20
17399;DHT22;8817;48.170;8.592;2023-04-10T14:49:17;21.70;37.20
17399;DHT22;8817;48.170;8.592;2023-04-10T14:51:45;21.80;37.20
17399;DHT22;8817;48.170;8.592;2023-04-10T14:54:12;21.80;37.20
17399;DHT22;8817;48.170;8.592;2023-04-10T14:56:42;21.80;37.10
17399;DHT22;8817;48.170;8.592;2023-04-10T14:59:09;21.80;37.00
17399;DHT22;8817;48.170;8.592;2023-04-10T15:01:36;21.70;37.00
17399;DHT22;8817;48.170;8.592;2023-04-10T15:04:03;21.70;37.00
17399;DHT22;8817;48.170;8.592;2023-04-10T15:06:31;21.70;37.00
17399;DHT22;8817;48.170;8.592;2023-04-10T15:08:58;21.70;37.00
17399;DHT22;8817;48.170;8.592;2023-04-10T15:11:25;21.60;37.00
17399;DHT22;8817;48.170;8.592;2023-04-10T15:13:54;21.60;36.90
17399;DHT22;8817;48.170;8.592;2023-04-10T15:16:21;21.60;36.90
17399;DHT22;8817;48.170;8.592;2023-04-10T15:18:48;21.60;36.90
17399;DHT22;8817;48.170;8.592;2023-04-10T15:21:15;21.50;36.80
17399;DHT22;8817;48.170;8.592;2023-04-10T15:23:42;21.50;36.90
17399;DHT22;8817;48.170;8.592;2023-04-10T15:26:12;21.40;36.90
17399;DHT22;8817;48.170;8.592;2023-04-10T15:28:39;21.40;36.90
17399;DHT22;8817;48.170;8.592;2023-04-10T15:31:09;21.40;36.90
17399;DHT22;8817;48.170;8.592;2023-04-10T15:33:36;21.40;36.90
17399;DHT22;8817;48.170;8.592;2023-04-10T15:36:05;21.30;36.80
17399;DHT22;8817;48.170;8.592;2023-04-10T15:38:33;21.30;36.70
17399;DHT22;8817;48.170;8.592;2023-04-10T15:41:05;21.20;36.70
17399;DHT22;8817;48.170;8.592;2023-04-10T15:43:33;21.20;36.70
17399;DHT22;8817;48.170;8.592;2023-04-10T15:46:00;21.10;36.70
17399;DHT22;8817;48.170;8.592;2023-04-10T15:48:28;21.00;36.70
17399;DHT22;8817;48.170;8.592;2023-04-10T15:50:55;21.00;36.80
17399;DHT22;8817;48.170;8.592;2023-04-10T15:53:23;20.90;36.70
17399;DHT22;8817;48.170;8.592;2023-04-10T15:55:49;20.90;36.80
17399;DHT22;8817;48.170;8.592;2023-04-10T15:58:16;20.80;36.80
17399;DHT22;8817;48.170;8.592;2023-04-10T16:00:43;20.80;36.80